createdAt,value
2023-03-30T00:00:20.574Z,12.50
2023-03-30T00:03:24.851Z,12.00
2023-03-30T00:06:28.196Z,12.00
2023-03-30T00:09:33.266Z,14.00
2023-03-30T00:12:37.027Z,11.20
2023-03-30T00:15:41.243Z,12.40
2023-03-30T00:18:45.814Z,11.25
2023-03-30T00:21:49.671Z,10.00
2023-03-30T00:24:54.361Z,12.40
2023-03-30T00:27:57.569Z,11.00
2023-03-30T00:31:01.505Z,10.00
2023-03-30T00:34:04.928Z,10.80
2023-03-30T00:37:08.099Z,8.60
2023-03-30T00:40:17.296Z,8.00
2023-03-30T00:43:21.052Z,9.60
2023-03-30T00:46:24.843Z,11.00
2023-03-30T00:49:28.182Z,9.80
2023-03-30T00:52:33.313Z,9.40
2023-03-30T00:55:41.781Z,9.00
2023-03-30T00:58:45.876Z,8.20
2023-03-30T01:01:50.459Z,8.00
2023-03-30T01:04:57.578Z,11.00
2023-03-30T01:08:02.071Z,9.00
2023-03-30T01:11:08.480Z,10.75
2023-03-30T01:14:14.685Z,13.00
2023-03-30T01:17:28.366Z,10.20
2023-03-30T01:21:25.408Z,9.60
2023-03-30T01:25:11.505Z,12.40
2023-03-30T01:28:26.182Z,11.00
2023-03-30T01:31:50.218Z,11.20
2023-03-30T01:35:32.064Z,11.80
2023-03-30T01:39:17.778Z,9.60
2023-03-30T01:42:25.996Z,12.00
2023-03-30T01:45:42.565Z,13.00
2023-03-30T01:48:54.804Z,10.60
2023-03-30T01:52:06.559Z,13.00
2023-03-30T01:55:18.529Z,9.00
2023-03-30T01:58:29.702Z,14.00
2023-03-30T02:01:38.098Z,10.00
2023-03-30T02:04:45.805Z,11.60
2023-03-30T02:07:53.424Z,10.60
2023-03-30T02:11:00.624Z,11.00
2023-03-30T02:14:06.408Z,10.60
2023-03-30T02:17:16.301Z,13.00
2023-03-30T02:20:19.990Z,11.40
2023-03-30T02:23:25.861Z,12.00
2023-03-30T02:26:31.243Z,10.00
2023-03-30T02:29:37.880Z,12.00
2023-03-30T02:32:44.001Z,10.20
2023-03-30T02:36:15.971Z,11.00
2023-03-30T02:39:41.871Z,10.50
2023-03-30T02:43:04.663Z,11.20
2023-03-30T02:46:28.772Z,10.00
2023-03-30T02:49:49.300Z,11.00
2023-03-30T02:52:57.032Z,9.00
2023-03-30T02:56:11.638Z,11.00
2023-03-30T02:59:33.543Z,8.80
2023-03-30T03:02:41.480Z,8.50
2023-03-30T03:06:02.567Z,8.00
2023-03-30T03:09:09.376Z,10.00
2023-03-30T03:12:12.789Z,9.00
2023-03-30T03:15:19.068Z,8.75
2023-03-30T03:18:40.063Z,9.00
2023-03-30T03:21:43.443Z,7.25
2023-03-30T03:24:46.779Z,9.20
2023-03-30T03:28:28.554Z,8.50
2023-03-30T03:31:39.369Z,9.20
2023-03-30T03:34:44.817Z,10.00
2023-03-30T03:37:49.708Z,9.00
2023-03-30T03:40:53.212Z,8.00
2023-03-30T03:43:56.484Z,8.00
2023-03-30T03:47:01.294Z,10.25
2023-03-30T03:50:09.414Z,7.40
2023-03-30T03:53:13.976Z,9.00
2023-03-30T03:56:17.255Z,8.00
2023-03-30T03:59:20.773Z,8.60
2023-03-30T04:02:25.965Z,8.00
2023-03-30T04:05:29.870Z,9.00
2023-03-30T04:08:33.404Z,9.40
2023-03-30T04:11:44.569Z,8.00
2023-03-30T04:15:01.916Z,9.00
2023-03-30T04:18:25.400Z,8.25
2023-03-30T04:21:47.152Z,5.80
2023-03-30T04:25:08.664Z,8.00
2023-03-30T04:28:22.042Z,4.00
2023-03-30T04:31:47.234Z,8.80
2023-03-30T04:34:54.896Z,6.40
2023-03-30T04:38:23.288Z,6.40
2023-03-30T04:41:52.353Z,8.00
2023-03-30T04:45:19.293Z,7.20
2023-03-30T04:48:55.981Z,9.00
2023-03-30T04:52:30.244Z,9.00
2023-03-30T04:56:09.160Z,8.40
2023-03-30T04:59:30.971Z,9.00
2023-03-30T05:03:03.423Z,9.00
2023-03-30T05:06:29.750Z,9.00
2023-03-30T05:09:54.372Z,8.00
2023-03-30T05:13:16.456Z,8.20
2023-03-30T05:16:19.809Z,8.40
2023-03-30T05:19:42.856Z,7.00
2023-03-30T05:23:09.535Z,7.00
2023-03-30T05:26:34.433Z,6.25
2023-03-30T05:30:04.172Z,6.00
2023-03-30T05:33:36.816Z,7.00
2023-03-30T05:36:58.766Z,7.00
2023-03-30T05:40:22.285Z,7.00
2023-03-30T05:43:45.784Z,6.00
2023-03-30T05:47:12.311Z,8.00
2023-03-30T05:50:23.371Z,6.80
2023-03-30T05:53:33.518Z,5.80
2023-03-30T05:56:55.514Z,6.60
2023-03-30T06:00:23.788Z,7.50
2023-03-30T06:03:36.907Z,5.00
2023-03-30T06:06:40.962Z,7.20
2023-03-30T06:09:45.468Z,6.20
2023-03-30T06:12:57.956Z,5.40
2023-03-30T06:16:18.836Z,8.25
2023-03-30T06:19:23.139Z,7.50
2023-03-30T06:22:27.998Z,9.00
2023-03-30T06:25:47.661Z,9.00
2023-03-30T06:28:51.033Z,9.00
2023-03-30T06:31:55.877Z,6.00
2023-03-30T06:35:17.683Z,6.50
2023-03-30T06:38:22.851Z,8.00
2023-03-30T06:41:28.313Z,6.00
2023-03-30T06:44:31.974Z,7.40
2023-03-30T06:47:39.313Z,6.80
2023-03-30T06:50:43.405Z,7.00
2023-03-30T06:53:54.443Z,8.40
2023-03-30T06:56:57.848Z,7.40
2023-03-30T07:00:01.244Z,7.40
2023-03-30T07:03:26.960Z,5.00
2023-03-30T07:06:50.494Z,6.00
2023-03-30T07:09:53.792Z,10.00
2023-03-30T07:12:57.362Z,5.00
2023-03-30T07:16:00.806Z,5.00
2023-03-30T07:19:08.986Z,7.00
2023-03-30T07:22:12.684Z,6.67
2023-03-30T07:25:16.708Z,7.00
2023-03-30T07:28:20.820Z,5.20
2023-03-30T07:31:24.960Z,4.60
2023-03-30T07:34:29.978Z,5.00
2023-03-30T07:37:34.216Z,5.00
2023-03-30T07:40:38.063Z,6.50
2023-03-30T07:43:42.273Z,5.00
2023-03-30T07:46:45.657Z,5.00
2023-03-30T07:49:56.860Z,7.40
2023-03-30T07:53:00.783Z,6.75
2023-03-30T07:56:04.562Z,5.75
2023-03-30T07:59:17.901Z,6.00
2023-03-30T08:02:21.849Z,6.80
2023-03-30T08:05:29.776Z,6.00
2023-03-30T08:08:44.489Z,5.60
2023-03-30T08:11:48.283Z,5.80
2023-03-30T08:14:51.557Z,5.00
2023-03-30T08:17:55.107Z,5.00
2023-03-30T08:20:59.709Z,5.00
2023-03-30T08:24:03.018Z,5.40
2023-03-30T08:27:06.334Z,5.00
2023-03-30T08:30:13.287Z,5.00
2023-03-30T08:33:17.163Z,4.00
2023-03-30T08:36:21.795Z,5.00
2023-03-30T08:39:25.167Z,6.00
2023-03-30T08:42:51.265Z,7.00
2023-03-30T08:45:54.606Z,5.75
2023-03-30T08:49:01.247Z,6.67
2023-03-30T08:52:06.928Z,5.00
2023-03-30T08:55:22.886Z,6.60
2023-03-30T08:58:40.415Z,8.00
2023-03-30T09:01:51.565Z,6.00
2023-03-30T09:05:02.099Z,5.33
2023-03-30T09:08:14.614Z,5.00
2023-03-30T09:11:29.834Z,5.00
2023-03-30T09:14:37.728Z,5.00
2023-03-30T09:17:45.218Z,6.00
2023-03-30T09:20:51.908Z,6.00
2023-03-30T09:23:58.748Z,4.00
2023-03-30T09:27:08.197Z,4.50
2023-03-30T09:30:19.381Z,4.00
2023-03-30T09:33:32.652Z,5.00
2023-03-30T09:36:40.884Z,4.00
2023-03-30T09:39:47.075Z,4.00
2023-03-30T09:42:59.474Z,5.20
2023-03-30T09:46:06.583Z,6.50
2023-03-30T09:49:16.013Z,4.00
2023-03-30T09:52:22.919Z,2.33
2023-03-30T09:55:31.324Z,6.00
2023-03-30T09:58:35.663Z,3.00
2023-03-30T10:01:39.188Z,4.00
2023-03-30T10:04:58.385Z,4.40
2023-03-30T10:08:04.321Z,4.00
2023-03-30T10:11:09.317Z,5.00
2023-03-30T10:14:29.124Z,5.00
2023-03-30T10:17:33.142Z,4.00
2023-03-30T10:20:39.101Z,5.00
2023-03-30T10:23:44.968Z,3.00
2023-03-30T10:26:52.594Z,3.00
2023-03-30T10:29:55.840Z,3.25
2023-03-30T10:33:02.943Z,3.00
2023-03-30T10:36:08.948Z,5.00
2023-03-30T10:39:15.679Z,5.40
2023-03-30T10:42:25.020Z,4.40
2023-03-30T10:45:34.009Z,4.00
2023-03-30T10:48:51.397Z,4.00
2023-03-30T10:52:09.395Z,4.00
2023-03-30T10:55:19.013Z,4.60
2023-03-30T10:58:39.714Z,4.00
2023-03-30T11:01:54.364Z,4.00
2023-03-30T11:05:02.448Z,5.33
2023-03-30T11:08:07.834Z,4.00
2023-03-30T11:11:17.163Z,4.00
2023-03-30T11:14:26.763Z,4.00
2023-03-30T11:17:35.624Z,4.60
2023-03-30T11:20:44.898Z,4.00
2023-03-30T11:23:54.872Z,4.00
2023-03-30T11:27:04.719Z,4.00
2023-03-30T11:30:17.171Z,4.00
2023-03-30T11:33:28.363Z,4.00
2023-03-30T11:36:39.237Z,4.80
2023-03-30T11:39:49.843Z,4.60
2023-03-30T11:42:53.701Z,7.00
2023-03-30T11:46:04.543Z,6.00
2023-03-30T11:49:30.902Z,3.80
2023-03-30T11:52:42.283Z,5.00
2023-03-30T11:55:57.525Z,6.00
2023-03-30T11:59:06.024Z,3.00
2023-03-30T12:02:24.969Z,5.80
2023-03-30T12:05:33.506Z,6.00
2023-03-30T12:08:54.646Z,3.00
2023-03-30T12:12:06.295Z,3.00
2023-03-30T12:15:23.311Z,3.00
2023-03-30T12:18:34.220Z,3.00
2023-03-30T12:21:42.732Z,5.00
2023-03-30T12:24:52.926Z,3.00
2023-03-30T12:28:04.829Z,5.00
2023-03-30T12:31:08.482Z,4.00
2023-03-30T12:34:13.177Z,5.00
2023-03-30T12:37:19.417Z,3.00
2023-03-30T12:40:26.246Z,4.60
2023-03-30T12:43:41.359Z,2.00
2023-03-30T12:46:58.484Z,3.40
2023-03-30T12:50:19.213Z,5.00
2023-03-30T12:53:48.269Z,4.00
2023-03-30T12:57:01.871Z,5.00
2023-03-30T13:00:24.610Z,5.00
2023-03-30T13:03:38.493Z,4.00
2023-03-30T13:06:52.209Z,3.00
2023-03-30T13:09:59.886Z,4.00
2023-03-30T13:13:05.952Z,4.00
2023-03-30T13:16:12.088Z,5.00
2023-03-30T13:19:25.874Z,5.00
2023-03-30T13:22:32.845Z,4.00
2023-03-30T13:25:41.316Z,4.25
2023-03-30T13:29:00.574Z,3.40
2023-03-30T13:32:16.189Z,5.00
2023-03-30T13:35:36.174Z,3.60
2023-03-30T13:39:01.535Z,5.00
2023-03-30T13:42:25.805Z,6.00
2023-03-30T13:45:40.286Z,5.00
2023-03-30T13:48:57.117Z,5.50
2023-03-30T13:52:05.473Z,6.60
2023-03-30T13:55:18.306Z,5.75
2023-03-30T13:58:24.510Z,6.00
2023-03-30T14:01:28.194Z,5.00
2023-03-30T14:04:33.074Z,8.00
2023-03-30T14:07:43.517Z,6.00
2023-03-30T14:10:53.830Z,6.25
2023-03-30T14:13:57.195Z,4.00
2023-03-30T14:17:02.910Z,3.60
2023-03-30T14:20:20.660Z,5.80
2023-03-30T14:23:33.427Z,5.00
2023-03-30T14:26:42.158Z,5.20
2023-03-30T14:29:46.485Z,6.00
2023-03-30T14:33:05.483Z,7.60
2023-03-30T14:36:12.722Z,7.00
2023-03-30T14:39:19.021Z,5.20
2023-03-30T14:42:27.324Z,7.00
2023-03-30T14:45:30.970Z,7.60
2023-03-30T14:48:37.595Z,7.00
2023-03-30T14:51:44.239Z,7.00
2023-03-30T14:55:04.162Z,7.00
2023-03-30T14:58:15.543Z,8.00
2023-03-30T15:01:25.862Z,5.00
2023-03-30T15:04:34.232Z,5.00
2023-03-30T15:07:38.025Z,8.80
2023-03-30T15:10:50.656Z,7.00
2023-03-30T15:13:57.935Z,9.00
2023-03-30T15:17:01.839Z,7.67
2023-03-30T15:20:08.351Z,9.60
2023-03-30T15:23:13.694Z,6.60
2023-03-30T15:26:18.304Z,11.00
2023-03-30T15:29:24.401Z,9.00
2023-03-30T15:32:35.282Z,9.60
2023-03-30T15:35:39.039Z,10.00
2023-03-30T15:38:49.392Z,8.20
2023-03-30T15:42:01.457Z,10.40
2023-03-30T15:45:12.727Z,9.00
2023-03-30T15:48:20.010Z,9.60
2023-03-30T15:51:27.914Z,11.00
2023-03-30T15:54:35.135Z,10.40
2023-03-30T15:57:44.404Z,9.00
2023-03-30T16:00:49.783Z,9.80
2023-03-30T16:03:56.945Z,7.80
2023-03-30T16:07:00.139Z,7.00
2023-03-30T16:10:03.387Z,7.00
2023-03-30T16:13:07.259Z,8.50
2023-03-30T16:16:14.026Z,8.75
2023-03-30T16:19:20.209Z,7.60
2023-03-30T16:22:23.701Z,7.00
2023-03-30T16:28:34.900Z,7.00
2023-03-30T16:31:39.493Z,8.00
2023-03-30T16:34:43.245Z,7.00
2023-03-30T16:37:46.566Z,9.50
2023-03-30T16:40:53.213Z,7.00
2023-03-30T16:43:56.538Z,8.00
2023-03-30T16:47:01.220Z,7.75
2023-03-30T16:50:18.010Z,8.25
2023-03-30T16:53:22.008Z,8.00
2023-03-30T16:56:26.218Z,6.00
2023-03-30T16:59:31.217Z,8.00
2023-03-30T17:02:35.842Z,7.50
2023-03-30T17:05:40.786Z,5.40
2023-03-30T17:08:44.113Z,5.60
2023-03-30T17:11:48.845Z,7.00
2023-03-30T17:14:52.096Z,7.00
2023-03-30T17:17:56.969Z,8.00
2023-03-30T17:21:01.392Z,6.00
2023-03-30T17:24:04.834Z,8.00
2023-03-30T17:27:08.270Z,7.00
2023-03-30T17:30:18.775Z,9.00
2023-03-30T17:33:23.931Z,7.60
2023-03-30T17:36:29.296Z,8.60
2023-03-30T17:39:33.198Z,9.00
2023-03-30T17:42:36.480Z,5.80
2023-03-30T17:45:40.954Z,7.00
2023-03-30T17:48:45.856Z,7.00
2023-03-30T17:51:49.992Z,6.00
2023-03-30T17:54:53.302Z,9.00
2023-03-30T17:57:57.260Z,11.00
2023-03-30T18:01:01.510Z,10.00
2023-03-30T18:04:06.988Z,9.00
2023-03-30T18:07:12.470Z,14.00
2023-03-30T18:10:21.878Z,10.00
2023-03-30T18:13:26.992Z,14.00
2023-03-30T18:16:30.379Z,14.50
2023-03-30T18:19:35.059Z,18.40
2023-03-30T18:22:38.251Z,15.60
2023-03-30T18:25:41.465Z,19.50
2023-03-30T18:28:46.565Z,14.00
2023-03-30T18:31:50.350Z,13.25
2023-03-30T18:34:54.981Z,16.75
2023-03-30T18:37:59.190Z,15.50
2023-03-30T18:41:02.382Z,12.20
2023-03-30T18:44:06.177Z,12.50
2023-03-30T18:47:10.492Z,14.00
2023-03-30T18:50:33.346Z,14.00
2023-03-30T18:53:37.224Z,13.00
2023-03-30T18:56:40.528Z,16.00
2023-03-30T18:59:43.773Z,13.33
2023-03-30T19:02:47.709Z,15.00
2023-03-30T19:05:52.763Z,13.20
2023-03-30T19:08:56.199Z,14.33
2023-03-30T19:12:00.089Z,14.00
2023-03-30T19:15:03.493Z,17.00
2023-03-30T19:18:07.264Z,14.40
2023-03-30T19:21:16.645Z,14.00
2023-03-30T19:24:19.915Z,14.00
2023-03-30T19:27:23.230Z,14.60
2023-03-30T19:30:26.926Z,17.00
2023-03-30T19:33:30.347Z,15.50
2023-03-30T19:36:34.899Z,16.00
2023-03-30T19:39:38.234Z,18.00
2023-03-30T19:42:41.444Z,17.00
2023-03-30T19:45:44.645Z,17.80
2023-03-30T19:48:48.365Z,15.20
2023-03-30T19:51:53.444Z,18.40
2023-03-30T19:54:56.914Z,15.20
2023-03-30T19:58:00.150Z,19.00
2023-03-30T20:01:05.110Z,18.50
2023-03-30T20:04:08.547Z,20.00
2023-03-30T20:07:13.626Z,17.00
2023-03-30T20:10:19.965Z,17.00
2023-03-30T20:13:24.584Z,15.00
2023-03-30T20:16:30.017Z,15.00
2023-03-30T20:19:33.374Z,12.25
2023-03-30T20:22:39.537Z,12.60
2023-03-30T20:25:49.442Z,11.00
2023-03-30T20:28:52.818Z,11.40
2023-03-30T20:31:56.109Z,12.40
2023-03-30T20:34:59.400Z,9.00
2023-03-30T20:38:04.730Z,10.00
2023-03-30T20:41:11.517Z,12.00
2023-03-30T20:44:18.190Z,9.20
2023-03-30T20:47:23.540Z,11.00
2023-03-30T20:50:27.270Z,11.50
2023-03-30T20:53:32.318Z,8.00
2023-03-30T20:56:36.001Z,10.00
2023-03-30T20:59:39.618Z,10.00
2023-03-30T21:02:43.589Z,7.80
2023-03-30T21:05:47.081Z,9.00
2023-03-30T21:08:52.008Z,11.00
2023-03-30T21:11:55.486Z,9.25
2023-03-30T21:14:58.802Z,12.00
2023-03-30T21:18:02.151Z,10.33
2023-03-30T21:21:06.155Z,11.00
2023-03-30T21:24:12.543Z,8.20
2023-03-30T21:27:16.020Z,8.40
2023-03-30T21:30:19.408Z,12.40
2023-03-30T21:33:22.980Z,9.00
2023-03-30T21:36:26.408Z,9.20
2023-03-30T21:39:31.145Z,10.80
2023-03-30T21:42:35.117Z,11.60
2023-03-30T21:45:38.375Z,10.20
2023-03-30T21:48:43.394Z,12.40
2023-03-30T21:51:46.974Z,10.25
2023-03-30T21:54:51.779Z,11.00
2023-03-30T21:57:55.014Z,11.00
2023-03-30T22:01:10.604Z,10.20
2023-03-30T22:04:15.499Z,13.60
2023-03-30T22:07:18.776Z,14.00
2023-03-30T22:10:23.844Z,11.00
2023-03-30T22:13:27.723Z,11.00
2023-03-30T22:16:33.406Z,11.20
2023-03-30T22:19:36.752Z,12.00
2023-03-30T22:22:40.107Z,11.60
2023-03-30T22:25:44.826Z,12.00
2023-03-30T22:28:48.281Z,11.80
2023-03-30T22:31:55.892Z,11.60
2023-03-30T22:34:59.410Z,12.20
2023-03-30T22:38:03.290Z,13.00
2023-03-30T22:41:08.833Z,13.00
2023-03-30T22:44:12.592Z,12.60
2023-03-30T22:47:15.818Z,11.80
2023-03-30T22:50:19.072Z,11.60
2023-03-30T22:53:22.308Z,13.20
2023-03-30T22:56:27.435Z,12.00
2023-03-30T22:59:31.609Z,12.00
2023-03-30T23:02:34.908Z,13.00
2023-03-30T23:05:39.123Z,12.00
2023-03-30T23:08:42.613Z,13.00
2023-03-30T23:11:47.228Z,12.25
2023-03-30T23:14:50.624Z,12.60
2023-03-30T23:17:54.015Z,14.80
2023-03-30T23:20:58.134Z,13.20
2023-03-30T23:24:03.224Z,12.50
2023-03-30T23:27:08.004Z,14.00
2023-03-30T23:30:12.154Z,14.00
2023-03-30T23:33:15.422Z,13.00
2023-03-30T23:36:19.294Z,14.00
2023-03-30T23:39:26.211Z,11.80
2023-03-30T23:42:30.878Z,12.00
2023-03-30T23:45:34.247Z,12.40
2023-03-30T23:48:37.534Z,16.00
2023-03-30T23:51:41.284Z,14.00
2023-03-30T23:54:44.577Z,17.00
2023-03-30T23:57:49.296Z,15.75
